sensor_id;sensor_type;location;lat;lon;timestamp;temperature;humidity
10175;DHT22;18221;38.704;0.152;2024-01-27T00:02:00;16.40;99.90
10175;DHT22;18221;38.704;0.152;2024-01-27T00:04:29;16.40;99.90
10175;DHT22;18221;38.704;0.152;2024-01-27T00:06:57;16.40;99.90
10175;DHT22;18221;38.704;0.152;2024-01-27T00:09:25;16.40;99.90
10175;DHT22;18221;38.704;0.152;2024-01-27T00:11:53;16.40;99.90
10175;DHT22;18221;38.704;0.152;2024-01-27T00:14:22;16.40;99.90
10175;DHT22;18221;38.704;0.152;2024-01-27T00:16:50;15.10;99.90
10175;DHT22;18221;38.704;0.152;2024-01-27T00:19:18;16.40;99.90
10175;DHT22;18221;38.704;0.152;2024-01-27T00:21:46;16.30;99.90
10175;DHT22;18221;38.704;0.152;2024-01-27T00:24:14;16.30;99.90
10175;DHT22;18221;38.704;0.152;2024-01-27T00:26:43;16.30;99.90
10175;DHT22;18221;38.704;0.152;2024-01-27T00:29:11;16.30;99.90
10175;DHT22;18221;38.704;0.152;2024-01-27T00:31:40;16.30;99.90
10175;DHT22;18221;38.704;0.152;2024-01-27T00:34:08;16.20;99.90
10175;DHT22;18221;38.704;0.152;2024-01-27T00:36:36;16.20;99.90
10175;DHT22;18221;38.704;0.152;2024-01-27T00:39:04;16.20;99.90
10175;DHT22;18221;38.704;0.152;2024-01-27T00:41:32;16.20;99.90
10175;DHT22;18221;38.704;0.152;2024-01-27T00:44:00;16.20;99.90
10175;DHT22;18221;38.704;0.152;2024-01-27T00:46:28;16.20;99.90
10175;DHT22;18221;38.704;0.152;2024-01-27T00:48:57;16.20;99.90
10175;DHT22;18221;38.704;0.152;2024-01-27T01:01:47;16.10;99.90
10175;DHT22;18221;38.704;0.152;2024-01-27T01:04:17;16.10;99.90
10175;DHT22;18221;38.704;0.152;2024-01-27T01:06:44;16.10;99.90
10175;DHT22;18221;38.704;0.152;2024-01-27T01:09:12;16.10;99.90
10175;DHT22;18221;38.704;0.152;2024-01-27T01:11:40;15.30;99.90
10175;DHT22;18221;38.704;0.152;2024-01-27T01:14:08;16.00;99.90
10175;DHT22;18221;38.704;0.152;2024-01-27T01:16:36;15.90;99.90
10175;DHT22;18221;38.704;0.152;2024-01-27T01:19:04;15.90;99.90
10175;DHT22;18221;38.704;0.152;2024-01-27T01:21:33;15.90;99.90
10175;DHT22;18221;38.704;0.152;2024-01-27T01:24:01;15.90;99.90
10175;DHT22;18221;38.704;0.152;2024-01-27T01:26:29;15.90;99.90
10175;DHT22;18221;38.704;0.152;2024-01-27T01:28:57;15.80;99.90
10175;DHT22;18221;38.704;0.152;2024-01-27T01:31:25;15.80;99.90
10175;DHT22;18221;38.704;0.152;2024-01-27T01:33:53;15.80;99.90
10175;DHT22;18221;38.704;0.152;2024-01-27T01:36:21;15.90;99.90
10175;DHT22;18221;38.704;0.152;2024-01-27T01:38:51;15.90;99.90
10175;DHT22;18221;38.704;0.152;2024-01-27T01:41:18;15.90;99.90
10175;DHT22;18221;38.704;0.152;2024-01-27T01:43:46;15.90;99.90
10175;DHT22;18221;38.704;0.152;2024-01-27T01:46:14;15.90;99.90
10175;DHT22;18221;38.704;0.152;2024-01-27T01:48:43;15.90;99.90
10175;DHT22;18221;38.704;0.152;2024-01-27T01:51:11;15.90;99.90
10175;DHT22;18221;38.704;0.152;2024-01-27T01:53:40;15.90;99.90
10175;DHT22;18221;38.704;0.152;2024-01-27T01:56:10;15.90;99.90
10175;DHT22;18221;38.704;0.152;2024-01-27T01:58:41;15.90;99.90
10175;DHT22;18221;38.704;0.152;2024-01-27T02:01:09;15.90;99.90
10175;DHT22;18221;38.704;0.152;2024-01-27T02:03:37;15.90;99.90
10175;DHT22;18221;38.704;0.152;2024-01-27T02:06:06;15.90;99.90
10175;DHT22;18221;38.704;0.152;2024-01-27T02:08:34;15.80;99.90
10175;DHT22;18221;38.704;0.152;2024-01-27T02:11:02;15.80;99.90
10175;DHT22;18221;38.704;0.152;2024-01-27T02:13:31;15.80;99.90
10175;DHT22;18221;38.704;0.152;2024-01-27T02:15:59;15.80;99.90
10175;DHT22;18221;38.704;0.152;2024-01-27T02:18:27;15.80;99.90
10175;DHT22;18221;38.704;0.152;2024-01-27T02:20:55;15.80;99.90
10175;DHT22;18221;38.704;0.152;2024-01-27T02:23:23;15.80;99.90
10175;DHT22;18221;38.704;0.152;2024-01-27T02:25:52;15.80;99.90
10175;DHT22;18221;38.704;0.152;2024-01-27T02:28:21;15.80;99.90
10175;DHT22;18221;38.704;0.152;2024-01-27T02:30:50;15.80;99.90
10175;DHT22;18221;38.704;0.152;2024-01-27T02:33:18;15.80;99.90
10175;DHT22;18221;38.704;0.152;2024-01-27T02:35:45;15.80;99.90
10175;DHT22;18221;38.704;0.152;2024-01-27T02:38:14;15.80;99.90
10175;DHT22;18221;38.704;0.152;2024-01-27T02:40:42;15.80;99.90
10175;DHT22;18221;38.704;0.152;2024-01-27T02:43:11;15.80;99.90
10175;DHT22;18221;38.704;0.152;2024-01-27T02:45:39;15.80;99.90
10175;DHT22;18221;38.704;0.152;2024-01-27T02:48:07;15.80;99.90
10175;DHT22;18221;38.704;0.152;2024-01-27T02:50:35;15.80;99.90
10175;DHT22;18221;38.704;0.152;2024-01-27T02:53:03;15.70;99.90
10175;DHT22;18221;38.704;0.152;2024-01-27T02:55:31;15.70;99.90
10175;DHT22;18221;38.704;0.152;2024-01-27T02:57:59;15.70;99.90
10175;DHT22;18221;38.704;0.152;2024-01-27T03:00:29;15.70;99.90
10175;DHT22;18221;38.704;0.152;2024-01-27T03:02:56;15.70;99.90
10175;DHT22;18221;38.704;0.152;2024-01-27T03:05:24;15.60;99.90
10175;DHT22;18221;38.704;0.152;2024-01-27T03:07:52;15.60;99.90
10175;DHT22;18221;38.704;0.152;2024-01-27T03:10:20;15.60;99.90
10175;DHT22;18221;38.704;0.152;2024-01-27T03:12:48;15.60;99.90
10175;DHT22;18221;38.704;0.152;2024-01-27T03:15:16;15.60;99.90
10175;DHT22;18221;38.704;0.152;2024-01-27T03:17:45;15.60;99.90
10175;DHT22;18221;38.704;0.152;2024-01-27T03:20:13;15.50;99.90
10175;DHT22;18221;38.704;0.152;2024-01-27T03:22:41;15.50;99.90
10175;DHT22;18221;38.704;0.152;2024-01-27T03:25:10;15.50;99.90
10175;DHT22;18221;38.704;0.152;2024-01-27T03:27:38;15.40;99.90
10175;DHT22;18221;38.704;0.152;2024-01-27T03:30:08;15.40;99.90
10175;DHT22;18221;38.704;0.152;2024-01-27T03:32:36;15.30;99.90
10175;DHT22;18221;38.704;0.152;2024-01-27T03:35:06;15.30;99.90
10175;DHT22;18221;38.704;0.152;2024-01-27T03:37:35;15.30;99.90
10175;DHT22;18221;38.704;0.152;2024-01-27T03:40:03;15.30;99.90
10175;DHT22;18221;38.704;0.152;2024-01-27T03:42:32;15.20;99.90
10175;DHT22;18221;38.704;0.152;2024-01-27T03:45:00;15.20;99.90
10175;DHT22;18221;38.704;0.152;2024-01-27T03:47:28;15.20;99.90
10175;DHT22;18221;38.704;0.152;2024-01-27T03:49:56;15.20;99.90
10175;DHT22;18221;38.704;0.152;2024-01-27T03:52:25;15.20;99.90
10175;DHT22;18221;38.704;0.152;2024-01-27T03:54:53;15.20;99.90
10175;DHT22;18221;38.704;0.152;2024-01-27T03:57:21;15.20;99.90
10175;DHT22;18221;38.704;0.152;2024-01-27T03:59:49;15.20;99.90
10175;DHT22;18221;38.704;0.152;2024-01-27T04:02:17;15.10;99.90
10175;DHT22;18221;38.704;0.152;2024-01-27T04:04:45;15.10;99.90
10175;DHT22;18221;38.704;0.152;2024-01-27T04:07:13;15.10;99.90
10175;DHT22;18221;38.704;0.152;2024-01-27T04:09:42;15.10;99.90
10175;DHT22;18221;38.704;0.152;2024-01-27T04:12:10;15.20;99.90
10175;DHT22;18221;38.704;0.152;2024-01-27T04:14:38;15.10;99.90
10175;DHT22;18221;38.704;0.152;2024-01-27T04:17:06;15.10;99.90
10175;DHT22;18221;38.704;0.152;2024-01-27T04:19:34;15.10;99.90
10175;DHT22;18221;38.704;0.152;2024-01-27T04:22:02;15.10;99.90
10175;DHT22;18221;38.704;0.152;2024-01-27T04:24:30;15.20;99.90
10175;DHT22;18221;38.704;0.152;2024-01-27T04:27:00;15.10;99.90
10175;DHT22;18221;38.704;0.152;2024-01-27T04:29:28;15.10;99.90
10175;DHT22;18221;38.704;0.152;2024-01-27T04:31:56;15.20;99.90
10175;DHT22;18221;38.704;0.152;2024-01-27T04:34:24;15.20;99.90
10175;DHT22;18221;38.704;0.152;2024-01-27T04:36:52;15.20;99.90
10175;DHT22;18221;38.704;0.152;2024-01-27T04:39:19;15.20;99.90
10175;DHT22;18221;38.704;0.152;2024-01-27T04:41:47;15.20;99.90
10175;DHT22;18221;38.704;0.152;2024-01-27T04:44:17;15.20;99.90
10175;DHT22;18221;38.704;0.152;2024-01-27T04:46:46;15.20;99.90
10175;DHT22;18221;38.704;0.152;2024-01-27T04:49:14;15.20;99.90
10175;DHT22;18221;38.704;0.152;2024-01-27T04:51:43;15.20;99.90
10175;DHT22;18221;38.704;0.152;2024-01-27T04:54:11;15.10;99.90
10175;DHT22;18221;38.704;0.152;2024-01-27T04:56:39;15.10;99.90
10175;DHT22;18221;38.704;0.152;2024-01-27T04:59:06;15.20;99.90
10175;DHT22;18221;38.704;0.152;2024-01-27T05:01:36;15.10;99.90
10175;DHT22;18221;38.704;0.152;2024-01-27T05:04:04;15.10;99.90
10175;DHT22;18221;38.704;0.152;2024-01-27T05:06:32;15.00;99.90
10175;DHT22;18221;38.704;0.152;2024-01-27T05:09:00;15.10;99.90
10175;DHT22;18221;38.704;0.152;2024-01-27T05:11:30;15.00;99.90
10175;DHT22;18221;38.704;0.152;2024-01-27T05:13:58;15.00;99.90
10175;DHT22;18221;38.704;0.152;2024-01-27T05:16:27;15.00;99.90
10175;DHT22;18221;38.704;0.152;2024-01-27T05:18:56;14.90;99.90
10175;DHT22;18221;38.704;0.152;2024-01-27T05:21:24;15.00;99.90
10175;DHT22;18221;38.704;0.152;2024-01-27T05:23:52;15.00;99.90
10175;DHT22;18221;38.704;0.152;2024-01-27T05:26:20;15.00;99.90
10175;DHT22;18221;38.704;0.152;2024-01-27T05:28:49;15.00;99.90
10175;DHT22;18221;38.704;0.152;2024-01-27T05:31:17;15.00;99.90
10175;DHT22;18221;38.704;0.152;2024-01-27T05:33:45;15.00;99.90
10175;DHT22;18221;38.704;0.152;2024-01-27T05:36:15;15.00;99.90
10175;DHT22;18221;38.704;0.152;2024-01-27T05:38:43;15.00;99.90
10175;DHT22;18221;38.704;0.152;2024-01-27T05:41:11;15.00;99.90
10175;DHT22;18221;38.704;0.152;2024-01-27T05:43:39;15.00;99.90
10175;DHT22;18221;38.704;0.152;2024-01-27T05:46:09;15.00;99.90
10175;DHT22;18221;38.704;0.152;2024-01-27T05:48:37;15.00;99.90
10175;DHT22;18221;38.704;0.152;2024-01-27T05:51:05;15.10;99.90
10175;DHT22;18221;38.704;0.152;2024-01-27T05:53:35;15.00;99.90
10175;DHT22;18221;38.704;0.152;2024-01-27T05:56:04;15.10;99.90
10175;DHT22;18221;38.704;0.152;2024-01-27T05:58:32;15.10;99.90
10175;DHT22;18221;38.704;0.152;2024-01-27T06:01:00;16.70;99.90
10175;DHT22;18221;38.704;0.152;2024-01-27T06:03:28;15.10;99.90
10175;DHT22;18221;38.704;0.152;2024-01-27T06:05:57;15.10;99.90
10175;DHT22;18221;38.704;0.152;2024-01-27T06:08:25;15.00;99.90
10175;DHT22;18221;38.704;0.152;2024-01-27T06:10:54;15.00;99.90
10175;DHT22;18221;38.704;0.152;2024-01-27T06:13:22;15.00;99.90
10175;DHT22;18221;38.704;0.152;2024-01-27T06:15:50;15.00;99.90
10175;DHT22;18221;38.704;0.152;2024-01-27T06:18:18;15.00;99.90
10175;DHT22;18221;38.704;0.152;2024-01-27T06:20:46;14.90;99.90
10175;DHT22;18221;38.704;0.152;2024-01-27T06:23:14;14.90;99.90
10175;DHT22;18221;38.704;0.152;2024-01-27T06:25:43;14.90;99.90
10175;DHT22;18221;38.704;0.152;2024-01-27T06:28:12;14.90;99.90
10175;DHT22;18221;38.704;0.152;2024-01-27T06:30:40;14.90;99.90
10175;DHT22;18221;38.704;0.152;2024-01-27T06:33:08;14.80;99.90
10175;DHT22;18221;38.704;0.152;2024-01-27T06:35:36;14.80;99.90
10175;DHT22;18221;38.704;0.152;2024-01-27T06:38:04;14.90;99.90
10175;DHT22;18221;38.704;0.152;2024-01-27T06:40:32;14.90;99.90
10175;DHT22;18221;38.704;0.152;2024-01-27T06:43:00;14.90;99.90
10175;DHT22;18221;38.704;0.152;2024-01-27T06:45:29;14.90;99.90
10175;DHT22;18221;38.704;0.152;2024-01-27T06:47:57;14.90;99.90
10175;DHT22;18221;38.704;0.152;2024-01-27T06:50:25;14.90;99.90
10175;DHT22;18221;38.704;0.152;2024-01-27T06:52:53;14.90;99.90
10175;DHT22;18221;38.704;0.152;2024-01-27T06:55:21;14.80;99.90
10175;DHT22;18221;38.704;0.152;2024-01-27T06:57:51;14.80;99.90
10175;DHT22;18221;38.704;0.152;2024-01-27T07:00:20;14.80;99.90
10175;DHT22;18221;38.704;0.152;2024-01-27T07:02:49;14.90;99.90
10175;DHT22;18221;38.704;0.152;2024-01-27T07:05:17;14.80;99.90
10175;DHT22;18221;38.704;0.152;2024-01-27T07:07:45;14.80;99.90
10175;DHT22;18221;38.704;0.152;2024-01-27T07:10:13;14.80;99.90
10175;DHT22;18221;38.704;0.152;2024-01-27T07:12:41;14.90;99.90
10175;DHT22;18221;38.704;0.152;2024-01-27T07:15:09;14.80;99.90
10175;DHT22;18221;38.704;0.152;2024-01-27T07:17:37;14.80;99.90
10175;DHT22;18221;38.704;0.152;2024-01-27T07:20:08;14.80;99.90
10175;DHT22;18221;38.704;0.152;2024-01-27T07:22:37;14.80;99.90
10175;DHT22;18221;38.704;0.152;2024-01-27T07:25:05;14.70;99.90
10175;DHT22;18221;38.704;0.152;2024-01-27T07:27:36;14.70;99.90
10175;DHT22;18221;38.704;0.152;2024-01-27T07:30:05;14.60;99.90
10175;DHT22;18221;38.704;0.152;2024-01-27T07:32:35;14.60;99.90
10175;DHT22;18221;38.704;0.152;2024-01-27T07:35:03;14.50;99.90
10175;DHT22;18221;38.704;0.152;2024-01-27T07:37:33;14.60;99.90
10175;DHT22;18221;38.704;0.152;2024-01-27T07:40:01;14.60;99.90
10175;DHT22;18221;38.704;0.152;2024-01-27T07:42:29;14.60;99.90
10175;DHT22;18221;38.704;0.152;2024-01-27T07:44:57;14.60;99.90
10175;DHT22;18221;38.704;0.152;2024-01-27T07:47:25;14.60;99.90
10175;DHT22;18221;38.704;0.152;2024-01-27T07:49:53;14.60;99.90
10175;DHT22;18221;38.704;0.152;2024-01-27T07:52:21;14.60;99.90
10175;DHT22;18221;38.704;0.152;2024-01-27T07:54:50;14.60;99.90
10175;DHT22;18221;38.704;0.152;2024-01-27T07:57:20;14.70;99.90
10175;DHT22;18221;38.704;0.152;2024-01-27T07:59:49;14.60;99.90
10175;DHT22;18221;38.704;0.152;2024-01-27T08:02:17;14.60;99.90
10175;DHT22;18221;38.704;0.152;2024-01-27T08:04:47;14.60;99.90
10175;DHT22;18221;38.704;0.152;2024-01-27T08:07:15;14.70;99.90
10175;DHT22;18221;38.704;0.152;2024-01-27T08:09:43;14.70;99.90
10175;DHT22;18221;38.704;0.152;2024-01-27T08:12:12;14.80;99.90
10175;DHT22;18221;38.704;0.152;2024-01-27T08:14:40;14.80;99.90
10175;DHT22;18221;38.704;0.152;2024-01-27T08:17:08;14.80;99.90
10175;DHT22;18221;38.704;0.152;2024-01-27T08:19:36;14.90;99.90
10175;DHT22;18221;38.704;0.152;2024-01-27T08:22:04;14.90;99.90
10175;DHT22;18221;38.704;0.152;2024-01-27T08:24:32;14.90;99.90
10175;DHT22;18221;38.704;0.152;2024-01-27T08:27:00;14.90;99.90
10175;DHT22;18221;38.704;0.152;2024-01-27T08:29:29;15.00;99.90
10175;DHT22;18221;38.704;0.152;2024-01-27T08:31:57;15.00;99.90
10175;DHT22;18221;38.704;0.152;2024-01-27T08:34:25;15.00;99.90
10175;DHT22;18221;38.704;0.152;2024-01-27T08:36:53;15.10;99.90
10175;DHT22;18221;38.704;0.152;2024-01-27T08:39:24;15.10;99.90
10175;DHT22;18221;38.704;0.152;2024-01-27T08:41:52;15.20;99.90
10175;DHT22;18221;38.704;0.152;2024-01-27T08:44:20;15.20;99.90
10175;DHT22;18221;38.704;0.152;2024-01-27T08:46:50;15.20;99.90
10175;DHT22;18221;38.704;0.152;2024-01-27T08:49:18;15.20;99.90
10175;DHT22;18221;38.704;0.152;2024-01-27T08:51:46;15.30;99.90
10175;DHT22;18221;38.704;0.152;2024-01-27T08:54:14;15.30;99.90
10175;DHT22;18221;38.704;0.152;2024-01-27T08:56:42;15.20;99.90
10175;DHT22;18221;38.704;0.152;2024-01-27T08:59:10;15.20;99.90
10175;DHT22;18221;38.704;0.152;2024-01-27T09:01:38;15.20;99.90
10175;DHT22;18221;38.704;0.152;2024-01-27T09:04:07;15.20;99.90
10175;DHT22;18221;38.704;0.152;2024-01-27T09:06:36;15.20;99.90
10175;DHT22;18221;38.704;0.152;2024-01-27T09:09:04;15.10;99.90
10175;DHT22;18221;38.704;0.152;2024-01-27T09:11:33;15.10;99.90
10175;DHT22;18221;38.704;0.152;2024-01-27T09:14:01;15.20;99.90
10175;DHT22;18221;38.704;0.152;2024-01-27T09:16:31;15.20;99.90
10175;DHT22;18221;38.704;0.152;2024-01-27T09:18:59;15.20;99.90
10175;DHT22;18221;38.704;0.152;2024-01-27T09:21:28;15.20;99.90
10175;DHT22;18221;38.704;0.152;2024-01-27T09:23:58;15.30;99.90
10175;DHT22;18221;38.704;0.152;2024-01-27T09:26:27;15.20;99.90
10175;DHT22;18221;38.704;0.152;2024-01-27T09:28:56;15.30;99.90
10175;DHT22;18221;38.704;0.152;2024-01-27T09:31:24;15.30;99.90
10175;DHT22;18221;38.704;0.152;2024-01-27T09:33:53;15.30;99.90
10175;DHT22;18221;38.704;0.152;2024-01-27T09:36:22;15.30;99.90
10175;DHT22;18221;38.704;0.152;2024-01-27T09:38:51;15.30;99.90
10175;DHT22;18221;38.704;0.152;2024-01-27T09:41:20;15.30;99.90
10175;DHT22;18221;38.704;0.152;2024-01-27T09:43:48;15.40;99.90
10175;DHT22;18221;38.704;0.152;2024-01-27T09:46:17;15.40;99.90
10175;DHT22;18221;38.704;0.152;2024-01-27T09:48:45;15.40;99.90
10175;DHT22;18221;38.704;0.152;2024-01-27T09:51:13;15.40;99.90
10175;DHT22;18221;38.704;0.152;2024-01-27T09:53:41;15.40;99.90
10175;DHT22;18221;38.704;0.152;2024-01-27T09:56:11;15.40;99.90
10175;DHT22;18221;38.704;0.152;2024-01-27T09:58:44;15.40;99.90
10175;DHT22;18221;38.704;0.152;2024-01-27T10:01:12;15.40;99.90
10175;DHT22;18221;38.704;0.152;2024-01-27T10:03:43;15.40;99.90
10175;DHT22;18221;38.704;0.152;2024-01-27T10:06:11;15.40;99.90
10175;DHT22;18221;38.704;0.152;2024-01-27T10:08:40;15.40;99.90
10175;DHT22;18221;38.704;0.152;2024-01-27T10:11:14;15.40;99.90
10175;DHT22;18221;38.704;0.152;2024-01-27T10:13:43;15.50;99.90
10175;DHT22;18221;38.704;0.152;2024-01-27T10:16:10;15.50;99.90
10175;DHT22;18221;38.704;0.152;2024-01-27T10:18:38;15.50;99.90
10175;DHT22;18221;38.704;0.152;2024-01-27T10:21:16;15.60;99.90
10175;DHT22;18221;38.704;0.152;2024-01-27T10:23:47;15.60;99.90
10175;DHT22;18221;38.704;0.152;2024-01-27T10:26:16;15.70;99.90
10175;DHT22;18221;38.704;0.152;2024-01-27T10:28:52;15.70;99.90
10175;DHT22;18221;38.704;0.152;2024-01-27T10:31:26;15.70;99.90
10175;DHT22;18221;38.704;0.152;2024-01-27T10:33:56;15.70;99.90
10175;DHT22;18221;38.704;0.152;2024-01-27T10:36:25;15.70;99.90
10175;DHT22;18221;38.704;0.152;2024-01-27T10:38:53;15.80;99.90
10175;DHT22;18221;38.704;0.152;2024-01-27T10:41:24;15.80;99.90
10175;DHT22;18221;38.704;0.152;2024-01-27T10:43:54;15.80;99.90
10175;DHT22;18221;38.704;0.152;2024-01-27T10:46:24;15.90;99.90
10175;DHT22;18221;38.704;0.152;2024-01-27T10:48:54;16.00;99.90
10175;DHT22;18221;38.704;0.152;2024-01-27T10:51:26;16.10;99.90
10175;DHT22;18221;38.704;0.152;2024-01-27T10:54:01;16.10;99.90
10175;DHT22;18221;38.704;0.152;2024-01-27T10:56:36;16.10;99.90
10175;DHT22;18221;38.704;0.152;2024-01-27T10:59:07;16.20;99.90
10175;DHT22;18221;38.704;0.152;2024-01-27T11:01:38;16.30;99.90
10175;DHT22;18221;38.704;0.152;2024-01-27T11:04:09;16.40;99.90
10175;DHT22;18221;38.704;0.152;2024-01-27T11:06:39;16.40;99.90
10175;DHT22;18221;38.704;0.152;2024-01-27T11:09:10;16.50;99.90
10175;DHT22;18221;38.704;0.152;2024-01-27T11:11:41;16.50;99.90
10175;DHT22;18221;38.704;0.152;2024-01-27T11:14:10;16.60;99.90
10175;DHT22;18221;38.704;0.152;2024-01-27T11:16:39;16.60;99.90
10175;DHT22;18221;38.704;0.152;2024-01-27T11:19:10;16.70;99.90
10175;DHT22;18221;38.704;0.152;2024-01-27T11:21:39;16.70;99.90
10175;DHT22;18221;38.704;0.152;2024-01-27T11:24:17;16.70;99.90
10175;DHT22;18221;38.704;0.152;2024-01-27T11:26:47;16.80;99.90
10175;DHT22;18221;38.704;0.152;2024-01-27T11:29:16;16.90;99.90
10175;DHT22;18221;38.704;0.152;2024-01-27T11:31:46;17.00;99.90
10175;DHT22;18221;38.704;0.152;2024-01-27T11:34:17;17.10;99.90
10175;DHT22;18221;38.704;0.152;2024-01-27T11:36:46;17.10;99.90
10175;DHT22;18221;38.704;0.152;2024-01-27T11:39:25;17.10;99.90
10175;DHT22;18221;38.704;0.152;2024-01-27T11:42:06;17.20;99.90
10175;DHT22;18221;38.704;0.152;2024-01-27T11:44:35;17.20;99.90
10175;DHT22;18221;38.704;0.152;2024-01-27T11:47:03;17.30;99.90
10175;DHT22;18221;38.704;0.152;2024-01-27T11:49:33;17.40;99.90
10175;DHT22;18221;38.704;0.152;2024-01-27T11:52:01;17.50;99.90
10175;DHT22;18221;38.704;0.152;2024-01-27T11:54:30;17.50;99.90
10175;DHT22;18221;38.704;0.152;2024-01-27T11:56:57;17.60;99.90
10175;DHT22;18221;38.704;0.152;2024-01-27T11:59:27;17.70;99.90
10175;DHT22;18221;38.704;0.152;2024-01-27T12:01:55;17.80;99.90
10175;DHT22;18221;38.704;0.152;2024-01-27T12:04:23;17.80;99.90
10175;DHT22;18221;38.704;0.152;2024-01-27T12:06:52;17.80;99.90
10175;DHT22;18221;38.704;0.152;2024-01-27T12:09:20;17.90;99.90
10175;DHT22;18221;38.704;0.152;2024-01-27T12:11:50;17.90;99.90
10175;DHT22;18221;38.704;0.152;2024-01-27T12:14:18;17.80;99.90
10175;DHT22;18221;38.704;0.152;2024-01-27T12:16:48;17.80;99.90
10175;DHT22;18221;38.704;0.152;2024-01-27T12:19:15;17.90;99.90
10175;DHT22;18221;38.704;0.152;2024-01-27T12:21:48;17.90;99.90
10175;DHT22;18221;38.704;0.152;2024-01-27T12:24:17;18.10;99.90
10175;DHT22;18221;38.704;0.152;2024-01-27T12:26:45;18.00;99.90
10175;DHT22;18221;38.704;0.152;2024-01-27T12:29:13;18.00;99.90
10175;DHT22;18221;38.704;0.152;2024-01-27T12:31:41;18.00;99.90
10175;DHT22;18221;38.704;0.152;2024-01-27T12:34:11;18.00;99.90
10175;DHT22;18221;38.704;0.152;2024-01-27T12:36:41;18.00;99.90
10175;DHT22;18221;38.704;0.152;2024-01-27T12:39:10;18.00;99.90
10175;DHT22;18221;38.704;0.152;2024-01-27T12:41:37;18.20;99.90
10175;DHT22;18221;38.704;0.152;2024-01-27T12:44:06;18.40;99.90
10175;DHT22;18221;38.704;0.152;2024-01-27T12:46:34;18.50;99.90
10175;DHT22;18221;38.704;0.152;2024-01-27T12:49:03;18.50;99.90
10175;DHT22;18221;38.704;0.152;2024-01-27T12:51:32;18.60;99.90
10175;DHT22;18221;38.704;0.152;2024-01-27T12:54:00;18.60;99.90
10175;DHT22;18221;38.704;0.152;2024-01-27T12:56:28;18.80;99.90
10175;DHT22;18221;38.704;0.152;2024-01-27T12:58:56;18.70;99.90
10175;DHT22;18221;38.704;0.152;2024-01-27T13:01:24;18.70;99.90
10175;DHT22;18221;38.704;0.152;2024-01-27T13:03:53;19.00;99.90
10175;DHT22;18221;38.704;0.152;2024-01-27T13:06:21;19.10;99.90
10175;DHT22;18221;38.704;0.152;2024-01-27T13:08:50;19.10;99.90
10175;DHT22;18221;38.704;0.152;2024-01-27T13:11:20;19.00;99.90
10175;DHT22;18221;38.704;0.152;2024-01-27T13:13:48;18.80;99.90
10175;DHT22;18221;38.704;0.152;2024-01-27T13:16:16;18.80;99.90
10175;DHT22;18221;38.704;0.152;2024-01-27T13:18:44;18.80;99.90
10175;DHT22;18221;38.704;0.152;2024-01-27T13:21:12;18.80;99.90
10175;DHT22;18221;38.704;0.152;2024-01-27T13:23:40;18.80;99.90
10175;DHT22;18221;38.704;0.152;2024-01-27T13:26:09;18.80;99.90
10175;DHT22;18221;38.704;0.152;2024-01-27T13:28:37;18.60;99.90
10175;DHT22;18221;38.704;0.152;2024-01-27T13:31:06;18.60;99.90
10175;DHT22;18221;38.704;0.152;2024-01-27T13:33:34;18.70;99.90
10175;DHT22;18221;38.704;0.152;2024-01-27T13:36:02;19.00;99.90
10175;DHT22;18221;38.704;0.152;2024-01-27T13:38:30;19.10;99.90
10175;DHT22;18221;38.704;0.152;2024-01-27T13:40:59;19.00;99.90
10175;DHT22;18221;38.704;0.152;2024-01-27T13:43:29;18.90;99.90
10175;DHT22;18221;38.704;0.152;2024-01-27T13:45:57;18.70;99.90
10175;DHT22;18221;38.704;0.152;2024-01-27T13:48:25;18.80;99.90
10175;DHT22;18221;38.704;0.152;2024-01-27T13:50:53;18.70;99.90
10175;DHT22;18221;38.704;0.152;2024-01-27T13:53:21;18.70;99.90
10175;DHT22;18221;38.704;0.152;2024-01-27T13:55:50;18.80;99.90
10175;DHT22;18221;38.704;0.152;2024-01-27T13:58:18;18.80;99.90
10175;DHT22;18221;38.704;0.152;2024-01-27T14:00:48;18.80;99.90
10175;DHT22;18221;38.704;0.152;2024-01-27T14:03:16;18.80;99.90
10175;DHT22;18221;38.704;0.152;2024-01-27T14:05:44;18.80;99.90
10175;DHT22;18221;38.704;0.152;2024-01-27T14:08:13;19.00;99.90
10175;DHT22;18221;38.704;0.152;2024-01-27T14:10:43;19.20;99.90
10175;DHT22;18221;38.704;0.152;2024-01-27T14:13:11;19.20;99.90
10175;DHT22;18221;38.704;0.152;2024-01-27T14:15:39;19.30;99.90
10175;DHT22;18221;38.704;0.152;2024-01-27T14:18:11;19.20;99.90
10175;DHT22;18221;38.704;0.152;2024-01-27T14:20:46;19.20;99.90
10175;DHT22;18221;38.704;0.152;2024-01-27T14:23:17;19.20;99.90
10175;DHT22;18221;38.704;0.152;2024-01-27T14:25:45;19.10;99.90
10175;DHT22;18221;38.704;0.152;2024-01-27T14:28:13;19.10;99.90
10175;DHT22;18221;38.704;0.152;2024-01-27T14:30:41;19.00;99.90
10175;DHT22;18221;38.704;0.152;2024-01-27T14:33:11;18.90;99.90
10175;DHT22;18221;38.704;0.152;2024-01-27T14:35:40;18.80;99.90
10175;DHT22;18221;38.704;0.152;2024-01-27T14:38:09;18.80;99.90
10175;DHT22;18221;38.704;0.152;2024-01-27T14:40:39;18.80;99.90
10175;DHT22;18221;38.704;0.152;2024-01-27T14:43:07;18.80;99.90
10175;DHT22;18221;38.704;0.152;2024-01-27T14:45:37;18.70;99.90
10175;DHT22;18221;38.704;0.152;2024-01-27T14:48:06;18.70;99.90
10175;DHT22;18221;38.704;0.152;2024-01-27T14:50:35;18.70;99.90
10175;DHT22;18221;38.704;0.152;2024-01-27T14:53:03;18.60;99.90
10175;DHT22;18221;38.704;0.152;2024-01-27T14:55:32;18.80;99.90
10175;DHT22;18221;38.704;0.152;2024-01-27T14:58:01;18.60;99.90
10175;DHT22;18221;38.704;0.152;2024-01-27T15:00:29;18.70;99.90
10175;DHT22;18221;38.704;0.152;2024-01-27T15:02:58;18.70;99.90
10175;DHT22;18221;38.704;0.152;2024-01-27T15:05:26;18.70;99.90
10175;DHT22;18221;38.704;0.152;2024-01-27T15:07:55;18.70;99.90
10175;DHT22;18221;38.704;0.152;2024-01-27T15:10:23;18.70;99.90
10175;DHT22;18221;38.704;0.152;2024-01-27T15:12:52;18.70;99.90
10175;DHT22;18221;38.704;0.152;2024-01-27T15:15:20;18.60;99.90
10175;DHT22;18221;38.704;0.152;2024-01-27T15:17:48;18.60;99.90
10175;DHT22;18221;38.704;0.152;2024-01-27T15:20:16;18.60;99.90
10175;DHT22;18221;38.704;0.152;2024-01-27T15:22:44;18.50;99.90
10175;DHT22;18221;38.704;0.152;2024-01-27T15:25:13;18.50;99.90
10175;DHT22;18221;38.704;0.152;2024-01-27T15:27:41;18.50;99.90
10175;DHT22;18221;38.704;0.152;2024-01-27T15:30:10;18.40;99.90
10175;DHT22;18221;38.704;0.152;2024-01-27T15:32:39;18.30;99.90
10175;DHT22;18221;38.704;0.152;2024-01-27T15:35:24;18.30;99.90
10175;DHT22;18221;38.704;0.152;2024-01-27T15:37:56;18.20;99.90
10175;DHT22;18221;38.704;0.152;2024-01-27T15:40:25;18.20;99.90
10175;DHT22;18221;38.704;0.152;2024-01-27T15:42:53;18.20;99.90
10175;DHT22;18221;38.704;0.152;2024-01-27T15:45:23;18.10;99.90
10175;DHT22;18221;38.704;0.152;2024-01-27T15:47:51;18.10;99.90
10175;DHT22;18221;38.704;0.152;2024-01-27T15:50:22;18.00;99.90